New Springfield, Ohio
Current Conditions -  °F | °C
As of 9:47 AM on Sunday 21 Dec 2014 (Local Time) from KBVI Reporting Station
Overcast Overcast  
Wind Chill: 30°   Ceiling: 2500
Heat Index: 30°   Visibility: 10mi
Dew Point: 19°   Wind: 0mph
Humidity: 64%   Direction: NA
Pressure: 30.3"   Gusts: NA
Location:  40.92°N, 80.61°W
Report Text: KBVI 211447Z 00000KT 10SM OVC025 M01/M07 A3030
Loading
Personal Weather Stations






























Interactive Weather Map New forecast layout! Learn more

10-Day Weather Forecast

Advertisements
Track Severe Weather on mobile